createdAt,value
2017-03-25T00:00:23.180Z,99.99
2017-03-25T00:01:41.342Z,99.99
2017-03-25T00:01:59.682Z,99.99
2017-03-25T00:02:17.128Z,99.99
2017-03-25T00:03:55.360Z,99.99
2017-03-25T00:05:17.472Z,99.99
2017-03-25T00:06:02.578Z,99.99
2017-03-25T00:07:18.935Z,99.99
2017-03-25T00:07:38.927Z,99.99
2017-03-25T00:09:41.207Z,99.99
2017-03-25T00:10:26.308Z,99.99
2017-03-25T00:11:55.222Z,99.99
2017-03-25T00:12:41.173Z,99.99
2017-03-25T00:13:57.277Z,99.99
2017-03-25T00:14:42.382Z,99.99
2017-03-25T00:15:58.489Z,99.99
2017-03-25T00:16:43.585Z,99.99
2017-03-25T00:17:59.720Z,99.99
2017-03-25T00:19:46.818Z,99.99
2017-03-25T00:20:37.778Z,99.99
2017-03-25T00:21:53.870Z,99.99
2017-03-25T00:23:10.200Z,99.99
2017-03-25T00:25:03.813Z,99.99
2017-03-25T00:26:19.897Z,99.99
2017-03-25T00:30:14.752Z,99.99
2017-03-25T00:34:19.966Z,99.99
2017-03-25T00:36:57.425Z,99.99
2017-03-25T00:39:31.087Z,99.99
2017-03-25T00:42:34.547Z,99.99
2017-03-25T00:43:50.670Z,99.99
2017-03-25T00:46:22.883Z,99.99
2017-03-25T00:47:08.034Z,99.99
2017-03-25T00:52:33.088Z,99.99
2017-03-25T00:54:20.621Z,99.99
2017-03-25T00:56:52.884Z,99.99
2017-03-25T00:58:12.040Z,99.99
2017-03-25T00:59:28.675Z,99.99
2017-03-25T01:00:44.783Z,99.99
2017-03-25T01:06:20.377Z,99.99
2017-03-25T01:08:07.516Z,99.99
2017-03-25T01:09:23.673Z,99.99
2017-03-25T01:14:14.196Z,99.99
2017-03-25T01:14:28.269Z,99.99
2017-03-25T01:18:47.679Z,99.99
2017-03-25T01:22:32.392Z,99.99
2017-03-25T01:25:36.118Z,99.99
2017-03-25T01:28:39.369Z,99.99
2017-03-25T01:30:09.586Z,99.99
2017-03-25T01:33:14.198Z,99.99
2017-03-25T01:33:59.275Z,99.99
2017-03-25T01:36:06.078Z,99.99
2017-03-25T01:36:32.921Z,99.99
2017-03-25T01:37:49.219Z,99.99
2017-03-25T01:39:05.338Z,99.99
2017-03-25T01:39:50.425Z,99.99
2017-03-25T01:40:35.548Z,99.99
2017-03-25T01:41:51.755Z,99.99
2017-03-25T01:44:09.868Z,99.99
2017-03-25T01:45:25.975Z,99.99
2017-03-25T01:46:42.074Z,99.99
2017-03-25T01:48:43.323Z,99.99
2017-03-25T01:52:00.726Z,99.99
2017-03-25T01:53:16.832Z,99.99
2017-03-25T01:58:48.562Z,99.99
2017-03-25T02:00:35.642Z,99.99
2017-03-25T02:01:31.040Z,99.99
2017-03-25T02:04:34.680Z,99.99
2017-03-25T02:05:50.806Z,99.99
2017-03-25T02:07:37.911Z,99.99
2017-03-25T02:10:10.153Z,99.99
2017-03-25T02:12:17.177Z,99.99
2017-03-25T02:14:18.683Z,99.99
2017-03-25T02:21:10.415Z,99.99
2017-03-25T02:26:00.702Z,99.99
2017-03-25T02:28:01.967Z,99.99
2017-03-25T02:28:16.023Z,99.99
2017-03-25T02:29:01.474Z,99.99
2017-03-25T02:29:15.616Z,99.99
2017-03-25T02:31:58.332Z,99.99
2017-03-25T02:36:48.723Z,99.99
2017-03-25T02:38:39.107Z,99.99
2017-03-25T02:40:57.200Z,99.99
2017-03-25T02:41:42.382Z,99.99
2017-03-25T02:43:12.629Z,99.99
2017-03-25T02:44:28.717Z,99.99
2017-03-25T02:45:13.943Z,99.99
2017-03-25T02:47:01.076Z,99.99
2017-03-25T02:49:16.407Z,99.99
2017-03-25T02:50:01.535Z,99.99
2017-03-25T02:51:17.652Z,99.99
2017-03-25T02:53:04.780Z,99.99
2017-03-25T02:56:08.024Z,99.99
2017-03-25T02:56:53.171Z,99.99
2017-03-25T02:57:38.257Z,99.99
2017-03-25T02:58:59.664Z,99.99
2017-03-25T02:59:15.182Z,99.99
2017-03-25T03:17:07.305Z,99.99
2017-03-25T03:18:23.465Z,99.99
2017-03-25T03:19:39.636Z,99.99
2017-03-25T03:19:53.933Z,99.99
2017-03-25T03:20:08.925Z,99.99
2017-03-25T03:21:07.233Z,99.99
2017-03-25T03:26:04.324Z,99.99
2017-03-25T03:29:38.789Z,99.99
2017-03-25T03:29:53.150Z,99.99
2017-03-25T03:31:45.662Z,99.99
2017-03-25T03:35:16.090Z,99.99
2017-03-25T03:36:18.190Z,99.99
2017-03-25T03:38:36.769Z,99.99
2017-03-25T03:39:54.506Z,99.99
2017-03-25T03:41:24.148Z,99.99
2017-03-25T03:43:25.437Z,99.99
2017-03-25T03:43:39.596Z,99.99
2017-03-25T03:44:54.991Z,99.99
2017-03-25T03:45:09.597Z,99.99
2017-03-25T03:46:11.947Z,99.99
2017-03-25T03:48:21.136Z,99.21
2017-03-25T03:49:07.061Z,99.02
2017-03-25T03:49:21.168Z,98.87
2017-03-25T03:51:49.111Z,98
2017-03-25T03:53:05.235Z,97.14
2017-03-25T03:53:50.640Z,96.85
2017-03-25T03:56:10.684Z,96.17
2017-03-25T03:56:41.459Z,96.08
2017-03-25T03:58:11.884Z,95.89
2017-03-25T04:00:26.342Z,95.69
2017-03-25T04:02:07.524Z,96.03
2017-03-25T04:05:23.941Z,95.64
2017-03-25T04:07:11.049Z,95.74
2017-03-25T04:08:29.662Z,95.84
2017-03-25T04:23:48.270Z,94.68
2017-03-25T04:24:33.426Z,94.73
2017-03-25T04:24:58.102Z,94.06
2017-03-25T04:25:31.752Z,94.25
2017-03-25T04:25:49.035Z,94.06
2017-03-25T04:26:23.141Z,94.15
2017-03-25T04:26:41.335Z,94.06
2017-03-25T04:26:55.857Z,94.64
2017-03-25T04:27:50.075Z,94.06
2017-03-25T04:28:05.521Z,94.06
2017-03-25T04:28:19.806Z,94.25
2017-03-25T04:28:35.213Z,94.34
2017-03-25T04:28:49.385Z,94.06
2017-03-25T04:29:34.552Z,94.73
2017-03-25T04:30:00.500Z,94.73
2017-03-25T04:30:48.867Z,94.15
2017-03-25T04:31:03.083Z,94.15
2017-03-25T04:31:55.173Z,94.59
2017-03-25T04:32:09.314Z,94.54
2017-03-25T04:32:24.169Z,94.73
2017-03-25T04:33:10.598Z,94.59
2017-03-25T04:33:26.809Z,94.73
2017-03-25T04:34:57.228Z,94.15
2017-03-25T04:35:11.602Z,94.25
2017-03-25T04:35:25.848Z,94.25
2017-03-25T04:35:40.091Z,94.25
2017-03-25T04:35:54.311Z,94.25
2017-03-25T04:36:08.465Z,94.25
2017-03-25T04:36:23.260Z,94.25
2017-03-25T04:36:38.410Z,94.25
2017-03-25T04:36:52.603Z,94.2
2017-03-25T04:37:09.886Z,94.25
2017-03-25T04:37:24.324Z,94.25
2017-03-25T04:37:38.603Z,94.25
2017-03-25T04:37:52.800Z,94.44
2017-03-25T04:38:06.976Z,94.44
2017-03-25T04:38:21.160Z,94.44
2017-03-25T04:38:35.337Z,94.15
2017-03-25T04:38:49.545Z,94.44
2017-03-25T04:39:03.705Z,94.1
2017-03-25T04:39:18.024Z,94.1
2017-03-25T04:39:32.171Z,94.2
2017-03-25T04:39:46.579Z,94.2
2017-03-25T04:40:00.811Z,94.2
2017-03-25T04:40:15.060Z,94.1
2017-03-25T04:40:29.234Z,94.1
2017-03-25T04:40:43.395Z,94.1
2017-03-25T04:40:57.524Z,94.1
2017-03-25T04:41:11.754Z,94.4
2017-03-25T04:41:25.974Z,94.2
2017-03-25T04:41:40.192Z,94.1
2017-03-25T04:41:54.347Z,94.3
2017-03-25T04:42:08.552Z,94.2
2017-03-25T04:42:22.697Z,94.2
2017-03-25T04:42:36.828Z,93.82
2017-03-25T04:42:50.955Z,94.1
2017-03-25T04:43:05.097Z,94.01
2017-03-25T04:43:19.259Z,94.15
2017-03-25T04:43:33.404Z,93.96
2017-03-25T04:43:47.543Z,93.91
2017-03-25T04:44:01.725Z,93.87
2017-03-25T04:44:15.909Z,94.06
2017-03-25T04:44:30.088Z,93.96
2017-03-25T04:44:44.201Z,94.15
2017-03-25T04:44:58.303Z,94.15
2017-03-25T04:45:12.528Z,93.96
2017-03-25T04:45:26.702Z,94.06
2017-03-25T04:45:40.819Z,93.96
2017-03-25T04:45:54.975Z,93.87
2017-03-25T04:46:09.132Z,93.96
2017-03-25T04:46:23.577Z,94.06
2017-03-25T04:46:38.055Z,93.96
2017-03-25T04:46:52.397Z,94.06
2017-03-25T04:47:06.534Z,94.06
2017-03-25T04:47:20.670Z,93.96
2017-03-25T04:47:34.831Z,94.06
2017-03-25T04:47:48.986Z,94.25
2017-03-25T04:48:03.145Z,93.96
2017-03-25T04:48:17.264Z,93.87
2017-03-25T04:48:31.492Z,94.06
2017-03-25T04:48:45.583Z,94.06
2017-03-25T04:48:59.714Z,93.96
2017-03-25T04:49:13.819Z,93.87
2017-03-25T04:49:27.922Z,93.87
2017-03-25T04:49:42.064Z,93.96
2017-03-25T04:49:56.185Z,94.06
2017-03-25T04:50:10.406Z,94.25
2017-03-25T04:50:24.519Z,93.96
2017-03-25T04:50:38.659Z,93.87
2017-03-25T04:50:52.846Z,93.87
2017-03-25T04:51:07.006Z,94.25
2017-03-25T04:51:21.209Z,94.06
2017-03-25T04:51:35.313Z,94.25
2017-03-25T04:51:49.487Z,94.25
2017-03-25T04:52:03.634Z,94.06
2017-03-25T04:52:17.773Z,93.96
2017-03-25T04:52:31.954Z,93.87
2017-03-25T04:52:46.104Z,94.15
2017-03-25T04:53:00.296Z,94.25
2017-03-25T04:53:14.476Z,94.25
2017-03-25T04:53:28.610Z,94.25
2017-03-25T04:53:42.690Z,93.87
2017-03-25T04:53:56.902Z,93.87
2017-03-25T04:54:11.168Z,94.25
2017-03-25T04:54:25.397Z,94.06
2017-03-25T04:54:39.535Z,94.15
2017-03-25T04:54:53.719Z,94.06
2017-03-25T04:55:07.854Z,93.96
2017-03-25T04:55:22.007Z,94.06
2017-03-25T04:55:36.161Z,94.06
2017-03-25T04:55:50.333Z,93.91
2017-03-25T04:56:04.493Z,93.96
2017-03-25T04:56:18.597Z,93.96
2017-03-25T04:56:33.495Z,93.82
2017-03-25T04:56:47.622Z,94.06
2017-03-25T04:57:01.720Z,93.87
2017-03-25T04:57:15.869Z,93.96
2017-03-25T04:57:30.021Z,94.25
2017-03-25T04:57:44.157Z,93.96
2017-03-25T04:57:58.280Z,94.34
2017-03-25T04:58:12.466Z,93.87
2017-03-25T04:58:26.611Z,94.25
2017-03-25T04:58:40.750Z,93.96
2017-03-25T04:58:54.906Z,94.15
2017-03-25T04:59:09.047Z,93.96
2017-03-25T04:59:23.263Z,93.96
2017-03-25T04:59:37.445Z,94.06
2017-03-25T04:59:51.561Z,94.06
2017-03-25T05:00:05.676Z,94.06
2017-03-25T05:00:19.792Z,94.25
2017-03-25T05:00:33.930Z,94.06
2017-03-25T05:00:48.087Z,94.06
2017-03-25T05:01:02.230Z,94.06
2017-03-25T05:01:16.342Z,94.15
2017-03-25T05:01:30.492Z,94.34
2017-03-25T05:01:44.613Z,94.15
2017-03-25T05:01:58.813Z,94.15
2017-03-25T05:02:12.991Z,94.25
2017-03-25T05:02:27.188Z,94.15
2017-03-25T05:02:41.357Z,94.34
2017-03-25T05:02:55.534Z,94.25
2017-03-25T05:03:09.672Z,94.06
2017-03-25T05:03:23.831Z,93.96
2017-03-25T05:03:38.003Z,94.15
2017-03-25T05:03:52.140Z,94.15
2017-03-25T05:04:06.297Z,94.25
2017-03-25T05:04:20.424Z,94.1
2017-03-25T05:04:34.593Z,94.06
2017-03-25T05:04:48.785Z,94.25
2017-03-25T05:05:02.923Z,94.15
2017-03-25T05:05:17.029Z,94.25
2017-03-25T05:05:31.203Z,94.06
2017-03-25T05:05:45.382Z,94.15
2017-03-25T05:05:59.577Z,94.25
2017-03-25T05:06:13.806Z,94.25
2017-03-25T05:06:27.983Z,94.15
2017-03-25T05:06:42.084Z,94.25
2017-03-25T05:06:56.240Z,94.15
2017-03-25T05:07:10.493Z,94.15
2017-03-25T05:07:24.691Z,94.15
2017-03-25T05:07:38.847Z,94.25
2017-03-25T05:07:52.996Z,94.34
2017-03-25T05:08:07.110Z,94.06
2017-03-25T05:08:21.235Z,94.34
2017-03-25T05:08:35.450Z,93.67
2017-03-25T05:08:49.650Z,93.57
2017-03-25T05:09:03.814Z,94.15
2017-03-25T05:09:18.127Z,94.34
2017-03-25T05:09:32.302Z,93.48
2017-03-25T05:09:46.447Z,93.67
2017-03-25T05:10:00.674Z,93.67
2017-03-25T05:10:14.851Z,93.67
2017-03-25T05:10:28.993Z,94.15
2017-03-25T05:10:43.085Z,94.15
2017-03-25T05:10:57.197Z,93.67
2017-03-25T05:11:11.356Z,94.15
2017-03-25T05:11:25.433Z,94.34
2017-03-25T05:11:39.533Z,93.67
2017-03-25T05:11:53.689Z,94.15
2017-03-25T05:12:07.842Z,94.34
2017-03-25T05:12:22.016Z,94.15
2017-03-25T05:12:36.116Z,94.25
2017-03-25T05:12:50.270Z,94.15
2017-03-25T05:13:04.400Z,94.25
2017-03-25T05:13:18.571Z,94.25
2017-03-25T05:13:32.819Z,94.25
2017-03-25T05:13:46.944Z,94.34
2017-03-25T05:14:01.093Z,94.1
2017-03-25T05:14:15.271Z,94.06
2017-03-25T05:14:29.466Z,94.06
2017-03-25T05:14:43.552Z,94.25
2017-03-25T05:14:57.674Z,94.25
2017-03-25T05:15:11.825Z,94.25
2017-03-25T05:15:25.973Z,94.01
2017-03-25T05:15:40.108Z,94.06
2017-03-25T05:15:54.263Z,94.06
2017-03-25T05:16:08.471Z,94.34
2017-03-25T05:16:22.610Z,93.48
2017-03-25T05:16:36.697Z,93.48
2017-03-25T05:16:50.806Z,94.15
2017-03-25T05:17:04.952Z,93.67
2017-03-25T05:17:19.125Z,93.67
2017-03-25T05:17:33.229Z,93.48
2017-03-25T05:17:47.393Z,94.25
2017-03-25T05:18:01.525Z,93.48
2017-03-25T05:18:15.646Z,93.57
2017-03-25T05:18:29.775Z,93.87
2017-03-25T05:18:43.918Z,93.38
2017-03-25T05:18:58.103Z,93.57
2017-03-25T05:19:12.214Z,93.48
2017-03-25T05:19:26.420Z,93.38
2017-03-25T05:19:40.594Z,93.57
2017-03-25T05:19:54.751Z,93.57
2017-03-25T05:20:08.912Z,93.38
2017-03-25T05:20:23.071Z,93.96
2017-03-25T05:20:37.239Z,93.87
2017-03-25T05:20:51.410Z,93.77
2017-03-25T05:21:05.520Z,93.77
2017-03-25T05:21:19.735Z,93.57
2017-03-25T05:21:33.925Z,93.87
2017-03-25T05:21:48.079Z,93.48
2017-03-25T05:22:02.179Z,93.48
2017-03-25T05:22:16.367Z,93.48
2017-03-25T05:22:30.510Z,93.38
2017-03-25T05:22:44.630Z,93.38
2017-03-25T05:22:58.838Z,93.77
2017-03-25T05:23:13.048Z,93.67
2017-03-25T05:23:27.269Z,93.77
2017-03-25T05:23:41.431Z,93.67
2017-03-25T05:23:55.533Z,93.48
2017-03-25T05:24:09.689Z,94.34
2017-03-25T05:24:23.966Z,94.15
2017-03-25T05:24:38.110Z,94.15
2017-03-25T05:24:52.303Z,93.57
2017-03-25T05:25:06.449Z,94.25
2017-03-25T05:25:20.659Z,94.06
2017-03-25T05:25:34.825Z,94.25
2017-03-25T05:25:48.979Z,94.34
2017-03-25T05:26:03.082Z,94.06
2017-03-25T05:26:17.251Z,94.25
2017-03-25T05:26:31.411Z,94.15
2017-03-25T05:26:45.579Z,94.25
2017-03-25T05:26:59.732Z,94.15
2017-03-25T05:27:13.906Z,94.06
2017-03-25T05:27:28.114Z,93.91
2017-03-25T05:27:42.302Z,94.2
2017-03-25T05:27:56.468Z,94.25
2017-03-25T05:28:10.601Z,93.91
2017-03-25T05:28:24.822Z,93.91
2017-03-25T05:28:38.946Z,94.1
2017-03-25T05:28:53.158Z,93.72
2017-03-25T05:29:07.368Z,93.72
2017-03-25T05:29:21.587Z,93.91
2017-03-25T05:29:35.752Z,93.91
2017-03-25T05:29:50.208Z,93.82
2017-03-25T05:30:04.373Z,94.01
2017-03-25T05:30:18.542Z,94.3
2017-03-25T05:30:32.660Z,93.91
2017-03-25T05:30:46.850Z,94.3
2017-03-25T05:31:01.075Z,93.72
2017-03-25T05:31:15.260Z,93.91
2017-03-25T05:31:29.450Z,93.91
2017-03-25T05:31:43.573Z,94.01
2017-03-25T05:31:57.699Z,93.91
2017-03-25T05:32:11.829Z,93.91
2017-03-25T05:32:26.027Z,93.91
2017-03-25T05:32:40.096Z,94.1
2017-03-25T05:32:54.186Z,93.91
2017-03-25T05:33:08.324Z,94.1
2017-03-25T05:33:22.441Z,94.2
2017-03-25T05:33:36.714Z,94.01
2017-03-25T05:33:50.939Z,93.91
2017-03-25T05:34:05.093Z,94.1
2017-03-25T05:34:19.290Z,94.2
2017-03-25T05:34:33.414Z,93.53
2017-03-25T05:34:47.552Z,93.53
2017-03-25T05:35:01.666Z,93.53
2017-03-25T05:35:15.814Z,93.53
2017-03-25T05:35:29.944Z,93.24
2017-03-25T05:35:44.151Z,93.43
2017-03-25T05:35:58.321Z,93.43
2017-03-25T05:36:12.485Z,93.43
2017-03-25T05:36:26.585Z,93.43
2017-03-25T05:36:40.696Z,93.24
2017-03-25T05:36:54.856Z,92.95
2017-03-25T05:37:09.010Z,93.53
2017-03-25T05:37:23.175Z,93.43
2017-03-25T05:37:37.319Z,93.33
2017-03-25T05:37:51.503Z,93.24
2017-03-25T05:38:05.705Z,93.33
2017-03-25T05:38:19.872Z,93.72
2017-03-25T05:38:33.995Z,92.95
2017-03-25T05:38:48.125Z,93.05
2017-03-25T05:39:02.341Z,92.76
2017-03-25T05:39:16.475Z,92.95
2017-03-25T05:39:30.731Z,93.43
2017-03-25T05:39:44.967Z,93.33
2017-03-25T05:39:59.119Z,93.33
2017-03-25T05:40:13.264Z,93.43
2017-03-25T05:40:27.384Z,93.05
2017-03-25T05:40:41.514Z,93.53
2017-03-25T05:40:55.702Z,93.05
2017-03-25T05:41:09.813Z,92.95
2017-03-25T05:41:24.004Z,93.53
2017-03-25T05:41:38.126Z,93.24
2017-03-25T05:41:52.243Z,92.95
2017-03-25T05:42:06.368Z,93.05
2017-03-25T05:42:20.527Z,93.05
2017-03-25T05:42:34.664Z,93.24
2017-03-25T05:42:48.805Z,93.24
2017-03-25T05:43:02.979Z,92.76
2017-03-25T05:43:17.130Z,93.05
2017-03-25T05:43:31.299Z,93.05
2017-03-25T05:43:45.420Z,93.05
2017-03-25T05:43:59.577Z,93.24
2017-03-25T05:44:13.761Z,92.85
2017-03-25T05:44:27.890Z,92.71
2017-03-25T05:44:42.213Z,92.76
2017-03-25T05:44:56.377Z,92.57
2017-03-25T05:45:10.494Z,92.71
2017-03-25T05:45:24.639Z,92.91
2017-03-25T05:45:38.779Z,92.71
2017-03-25T05:45:52.919Z,92.52
2017-03-25T05:46:07.073Z,93.05
2017-03-25T05:46:21.425Z,92.91
2017-03-25T05:46:35.569Z,92.04
2017-03-25T05:46:49.648Z,92.38
2017-03-25T05:47:03.788Z,92.33
2017-03-25T05:47:17.919Z,92.43
2017-03-25T05:47:32.061Z,92.61
2017-03-25T05:47:46.249Z,92.52
2017-03-25T05:48:00.399Z,92.43
2017-03-25T05:48:14.565Z,92.04
2017-03-25T05:48:28.745Z,91.94
2017-03-25T05:48:42.914Z,91.85
2017-03-25T05:48:57.007Z,92.13
2017-03-25T05:49:11.146Z,91.85
2017-03-25T05:49:25.326Z,91.7
2017-03-25T05:49:39.448Z,91.89
2017-03-25T05:49:53.603Z,91.85
2017-03-25T05:50:07.765Z,91.7
2017-03-25T05:50:21.881Z,91.8
2017-03-25T05:50:36.011Z,91.7
2017-03-25T05:50:50.168Z,91.99
2017-03-25T05:51:04.265Z,91.89
2017-03-25T05:51:18.399Z,91.7
2017-03-25T05:51:32.622Z,91.7
2017-03-25T05:51:46.757Z,91.89
2017-03-25T05:52:00.920Z,91.89
2017-03-25T05:52:15.084Z,92.08
2017-03-25T05:52:29.326Z,91.99
2017-03-25T05:52:43.462Z,91.99
2017-03-25T05:52:57.598Z,91.99
2017-03-25T05:53:11.776Z,91.89
2017-03-25T05:53:25.895Z,91.8
2017-03-25T05:53:40.032Z,91.89
2017-03-25T05:53:54.190Z,91.89
2017-03-25T05:54:08.329Z,91.89
2017-03-25T05:54:22.530Z,91.7
2017-03-25T05:54:36.774Z,92.08
2017-03-25T05:54:50.898Z,92.47
2017-03-25T05:55:05.029Z,92.18
2017-03-25T05:55:19.178Z,92.28
2017-03-25T05:55:33.317Z,92.18
2017-03-25T05:55:47.659Z,92.28
2017-03-25T05:56:01.778Z,92.18
2017-03-25T05:56:15.947Z,92.08
2017-03-25T05:56:30.108Z,91.89
2017-03-25T05:56:44.203Z,92.18
2017-03-25T05:56:58.361Z,92.18
2017-03-25T05:57:12.495Z,92.38
2017-03-25T05:57:26.577Z,92.18
2017-03-25T05:57:40.691Z,92.08
2017-03-25T05:57:54.896Z,92.28
2017-03-25T05:58:09.028Z,92.47
2017-03-25T05:58:23.145Z,92.18
2017-03-25T05:58:37.235Z,92.18
2017-03-25T05:58:51.418Z,92.18
2017-03-25T05:59:05.544Z,92.38
2017-03-25T05:59:19.722Z,92.28
2017-03-25T05:59:33.836Z,92.28
2017-03-25T05:59:48.008Z,92.38
2017-03-25T06:00:02.176Z,92.08
2017-03-25T06:00:16.354Z,92.08
2017-03-25T06:00:30.523Z,92.38
2017-03-25T06:00:44.689Z,92.38
2017-03-25T06:00:58.922Z,92.18
2017-03-25T06:01:13.044Z,92.47
2017-03-25T06:01:26.708Z,92.38
2017-03-25T06:01:40.876Z,92.57
2017-03-25T06:01:55.037Z,92.38
2017-03-25T06:02:09.209Z,92.28
2017-03-25T06:02:23.336Z,92.08
2017-03-25T06:02:37.475Z,92.38
2017-03-25T06:02:51.632Z,92.47
2017-03-25T06:03:05.767Z,92.28
2017-03-25T06:03:19.905Z,92.08
2017-03-25T06:03:34.080Z,92.28
2017-03-25T06:03:48.211Z,92.28
2017-03-25T06:04:02.327Z,91.8
2017-03-25T06:04:16.436Z,91.89
2017-03-25T06:04:30.560Z,92.38
2017-03-25T06:04:44.648Z,92.38
2017-03-25T06:04:58.792Z,91.99
2017-03-25T06:05:12.955Z,92.38
2017-03-25T06:05:27.178Z,92.08
2017-03-25T06:05:41.318Z,92.04
2017-03-25T06:05:55.483Z,92.04
2017-03-25T06:06:09.696Z,92.04
2017-03-25T06:06:23.851Z,92.33
2017-03-25T06:06:37.969Z,92.04
2017-03-25T06:06:52.079Z,91.94
2017-03-25T06:07:06.279Z,92.04
2017-03-25T06:07:20.436Z,91.94
2017-03-25T06:07:34.585Z,91.85
2017-03-25T06:07:48.692Z,91.66
2017-03-25T06:08:02.851Z,91.66
2017-03-25T06:08:17.001Z,91.66
2017-03-25T06:08:31.145Z,91.85
2017-03-25T06:08:45.231Z,91.85
2017-03-25T06:08:59.414Z,91.75
2017-03-25T06:09:13.543Z,91.56
2017-03-25T06:09:27.675Z,92.04
2017-03-25T06:09:41.788Z,91.56
2017-03-25T06:09:56.001Z,92.04
2017-03-25T06:10:10.093Z,92.13
2017-03-25T06:10:24.191Z,91.94
2017-03-25T06:10:38.330Z,92.28
2017-03-25T06:10:52.387Z,92.13
2017-03-25T06:11:06.533Z,92.04
2017-03-25T06:11:20.706Z,91.94
2017-03-25T06:11:34.857Z,91.85
2017-03-25T06:11:49.002Z,92.04
2017-03-25T06:12:03.164Z,91.36
2017-03-25T06:12:17.334Z,91.75
2017-03-25T06:12:31.448Z,91.66
2017-03-25T06:12:45.586Z,91.36
2017-03-25T06:12:59.708Z,91.36
2017-03-25T06:13:13.889Z,91.08
2017-03-25T06:13:28.010Z,91.36
2017-03-25T06:13:42.164Z,91.17
2017-03-25T06:13:56.324Z,91.27
2017-03-25T06:14:10.510Z,91.56
2017-03-25T06:14:24.660Z,91.17
2017-03-25T06:14:38.751Z,91.08
2017-03-25T06:14:52.926Z,91.17
2017-03-25T06:15:07.054Z,91.17
2017-03-25T06:15:21.203Z,90.89
2017-03-25T06:15:35.360Z,90.89
2017-03-25T06:15:49.479Z,90.98
2017-03-25T06:16:03.625Z,91.36
2017-03-25T06:16:17.812Z,90.59
2017-03-25T06:16:31.943Z,90.5
2017-03-25T06:16:46.133Z,90.89
2017-03-25T06:17:00.345Z,90.41
2017-03-25T06:17:14.462Z,90.41
2017-03-25T06:17:28.594Z,90.31
2017-03-25T06:17:42.728Z,90.41
2017-03-25T06:17:56.803Z,90.59
2017-03-25T06:18:10.963Z,90.55
2017-03-25T06:18:25.126Z,90.59
2017-03-25T06:18:39.221Z,91.03
2017-03-25T06:18:53.393Z,90.69
2017-03-25T06:19:07.527Z,90.55
2017-03-25T06:19:21.665Z,90.55
2017-03-25T06:19:35.816Z,90.5
2017-03-25T06:19:50.013Z,90.5
2017-03-25T06:20:04.147Z,90.69
2017-03-25T06:20:18.252Z,90.73
2017-03-25T06:20:32.406Z,90.73
2017-03-25T06:20:46.607Z,90.55
2017-03-25T06:21:00.775Z,90.73
2017-03-25T06:21:14.975Z,90.83
2017-03-25T06:21:29.141Z,90.73
2017-03-25T06:21:43.312Z,90.73
2017-03-25T06:21:57.524Z,90.73
2017-03-25T06:22:11.716Z,90.55
2017-03-25T06:22:25.820Z,90.83
2017-03-25T06:22:39.918Z,91.31
2017-03-25T06:22:54.041Z,90.45
2017-03-25T06:23:08.141Z,90.83
2017-03-25T06:23:22.310Z,90.73
2017-03-25T06:23:36.452Z,90.73
2017-03-25T06:23:50.635Z,90.73
2017-03-25T06:24:04.738Z,90.93
2017-03-25T06:24:18.883Z,91.31
2017-03-25T06:24:33.021Z,91.31
2017-03-25T06:24:47.154Z,91.22
2017-03-25T06:25:01.402Z,90.73
2017-03-25T06:25:15.618Z,90.83
2017-03-25T06:25:29.771Z,91.41
2017-03-25T06:25:43.890Z,90.93
2017-03-25T06:25:57.953Z,91.03
2017-03-25T06:26:12.109Z,91.03
2017-03-25T06:26:26.255Z,91.13
2017-03-25T06:26:40.353Z,91.13
2017-03-25T06:26:54.455Z,91.03
2017-03-25T06:27:08.585Z,91.03
2017-03-25T06:27:22.772Z,91.22
2017-03-25T06:27:36.919Z,91.13
2017-03-25T06:27:51.081Z,91.31
2017-03-25T06:28:05.218Z,91.22
2017-03-25T06:28:19.325Z,91.03
2017-03-25T06:28:33.474Z,91.41
2017-03-25T06:28:47.637Z,91.31
2017-03-25T06:29:01.775Z,91.41
2017-03-25T06:29:15.909Z,91.41
2017-03-25T06:29:30.047Z,91.41
2017-03-25T06:29:44.154Z,91.22
2017-03-25T06:29:58.293Z,91.51
2017-03-25T06:30:12.360Z,91.41
2017-03-25T06:30:26.534Z,91.41
2017-03-25T06:30:40.691Z,91.13
2017-03-25T06:30:54.946Z,91.41
2017-03-25T06:31:09.102Z,91.41
2017-03-25T06:31:23.285Z,91.22
2017-03-25T06:31:37.446Z,91.13
2017-03-25T06:31:51.574Z,91.51
2017-03-25T06:32:05.701Z,91.51
2017-03-25T06:32:19.880Z,91.51
2017-03-25T06:32:33.990Z,91.41
2017-03-25T06:32:48.150Z,91.31
2017-03-25T06:33:02.305Z,91.13
2017-03-25T06:33:16.461Z,91.22
2017-03-25T06:33:30.623Z,91.22
2017-03-25T06:33:44.817Z,91.51
2017-03-25T06:33:58.987Z,91.51
2017-03-25T06:34:13.104Z,91.03
2017-03-25T06:34:27.204Z,91.41
2017-03-25T06:34:41.334Z,91.51
2017-03-25T06:34:55.520Z,91.41
2017-03-25T06:35:09.683Z,91.31
2017-03-25T06:35:23.841Z,91.13
2017-03-25T06:35:37.945Z,91.31
2017-03-25T06:35:52.063Z,91.31
2017-03-25T06:36:06.206Z,91.31
2017-03-25T06:36:20.335Z,91.22
2017-03-25T06:36:34.466Z,91.41
2017-03-25T06:36:48.556Z,91.51
2017-03-25T06:37:02.687Z,91.31
2017-03-25T06:37:16.862Z,91.22
2017-03-25T06:37:30.984Z,91.27
2017-03-25T06:37:45.117Z,91.07
2017-03-25T06:37:59.313Z,91.27
2017-03-25T06:38:13.488Z,91.46
2017-03-25T06:38:27.643Z,91.27
2017-03-25T06:38:41.752Z,91.41
2017-03-25T06:38:55.919Z,91.41
2017-03-25T06:39:10.055Z,91.41
2017-03-25T06:39:24.213Z,91.6
2017-03-25T06:39:38.346Z,91.41
2017-03-25T06:39:52.489Z,91.41
2017-03-25T06:40:06.776Z,91.41
2017-03-25T06:40:20.869Z,91.51
2017-03-25T06:40:34.992Z,91.6
2017-03-25T06:40:49.102Z,91.31
2017-03-25T06:41:03.253Z,91.51
2017-03-25T06:41:17.388Z,91.41
2017-03-25T06:41:31.435Z,91.41
2017-03-25T06:41:45.546Z,91.41
2017-03-25T06:41:59.727Z,91.31
2017-03-25T06:42:13.837Z,91.31
2017-03-25T06:42:27.928Z,91.51
2017-03-25T06:42:42.076Z,91.27
2017-03-25T06:42:56.261Z,91.41
2017-03-25T06:43:10.403Z,91.31
2017-03-25T06:43:24.556Z,91.51
2017-03-25T06:43:38.691Z,91.41
2017-03-25T06:43:52.870Z,91.22
2017-03-25T06:44:07.019Z,91.51
2017-03-25T06:44:21.171Z,91.41
2017-03-25T06:44:35.336Z,91.41
2017-03-25T06:44:49.528Z,91.55
2017-03-25T06:45:03.627Z,91.41
2017-03-25T06:45:17.781Z,91.55
2017-03-25T06:45:31.930Z,91.27
2017-03-25T06:45:46.086Z,91.27
2017-03-25T06:46:00.187Z,91.27
2017-03-25T06:46:14.386Z,91.36
2017-03-25T06:46:28.512Z,91.46
2017-03-25T06:46:42.651Z,91.36
2017-03-25T06:46:56.820Z,91.55
2017-03-25T06:47:11.016Z,91.27
2017-03-25T06:47:25.176Z,91.65
2017-03-25T06:47:39.323Z,92.13
2017-03-25T06:47:53.476Z,92.13
2017-03-25T06:48:07.620Z,91.84
2017-03-25T06:48:21.730Z,91.94
2017-03-25T06:48:35.857Z,91.75
2017-03-25T06:48:50.061Z,92.03
2017-03-25T06:49:04.221Z,92.13
2017-03-25T06:49:18.357Z,92.42
2017-03-25T06:49:32.447Z,92.32
2017-03-25T06:49:46.577Z,92.22
2017-03-25T06:50:00.757Z,92.03
2017-03-25T06:50:14.938Z,92.03
2017-03-25T06:50:29.084Z,92.03
2017-03-25T06:50:43.276Z,92.22
2017-03-25T06:50:57.492Z,91.94
2017-03-25T06:51:11.598Z,92.03
2017-03-25T06:51:25.726Z,92.03
2017-03-25T06:51:39.885Z,92.13
2017-03-25T06:51:54.059Z,92.13
2017-03-25T06:52:08.167Z,92.13
2017-03-25T06:52:22.326Z,92.13
2017-03-25T06:52:36.485Z,92.22
2017-03-25T06:52:50.670Z,92.13
2017-03-25T06:53:04.848Z,92.13
2017-03-25T06:53:19.010Z,92.22
2017-03-25T06:53:33.160Z,92.32
2017-03-25T06:53:47.296Z,92.32
2017-03-25T06:54:01.486Z,92.32
2017-03-25T06:54:15.589Z,92.13
2017-03-25T06:54:29.735Z,92.42
2017-03-25T06:54:43.849Z,92.61
2017-03-25T06:54:58.041Z,92.42
2017-03-25T06:55:12.288Z,92.42
2017-03-25T06:55:26.394Z,92.42
2017-03-25T06:55:40.552Z,92.42
2017-03-25T06:55:54.667Z,92.32
2017-03-25T06:56:08.812Z,92.42
2017-03-25T06:56:22.953Z,92.32
2017-03-25T06:56:37.120Z,92.32
2017-03-25T06:56:51.286Z,92.52
2017-03-25T06:57:05.435Z,92.32
2017-03-25T06:57:19.602Z,92.42
2017-03-25T06:57:33.713Z,92.52
2017-03-25T06:57:47.835Z,92.42
2017-03-25T06:58:02.050Z,92.42
2017-03-25T06:58:16.228Z,92.42
2017-03-25T06:58:30.446Z,92.32
2017-03-25T06:58:44.611Z,92.42
2017-03-25T06:58:58.742Z,92.32
2017-03-25T06:59:12.832Z,92.32
2017-03-25T06:59:27.055Z,92.32
2017-03-25T06:59:41.228Z,92.32
2017-03-25T06:59:55.367Z,92.22
2017-03-25T07:00:09.540Z,92.61
2017-03-25T07:00:23.719Z,92.61
2017-03-25T07:00:37.876Z,92.32
2017-03-25T07:00:52.008Z,92.42
2017-03-25T07:01:06.157Z,92.52
2017-03-25T07:01:20.340Z,92.8
2017-03-25T07:01:34.497Z,92.71
2017-03-25T07:01:48.596Z,92.32